Time;durP1;ratioP1;P1;durP2;ratioP2;P2;SDS_P1;SDS_P2;PMS_P1;PMS_P2;Temp;Humidity;BMP_temperature;BMP_pressure;BME280_temperature;BME280_humidity;BME280_pressure;Samples;Min_cycle;Max_cycle;Signal;HPM_P1;HPM_P2
2023/06/23 00:00:31;;;;;;;24.70;17.98;;;;;;;-144.87;100.00;61487.56;4991404;28;20042;-68
2023/06/23 00:02:57;;;;;;;23.20;17.88;;;;;;;-144.87;100.00;61487.56;4997572;28;20045;-68
2023/06/23 00:05:25;;;;;;;23.95;18.63;;;;;;;-144.87;100.00;61487.56;4999074;28;20063;-68
2023/06/23 00:07:52;;;;;;;23.27;16.85;;;;;;;-144.87;100.00;61487.56;4989132;28;20488;-68
2023/06/23 00:10:19;;;;;;;23.17;16.63;;;;;;;-144.87;100.00;61487.56;4985369;28;20038;-67
2023/06/23 00:12:45;;;;;;;20.65;16.17;;;;;;;-144.87;100.00;61487.56;4983154;28;20152;-68
2023/06/23 00:15:14;;;;;;;21.25;15.38;;;;;;;-144.87;100.00;61487.56;4974136;28;20406;-69
2023/06/23 00:17:45;;;;;;;18.60;15.27;;;;;;;-144.87;100.00;61487.56;4993927;28;20085;-69
2023/06/23 00:20:13;;;;;;;21.85;14.57;;;;;;;-144.87;100.00;61487.56;4994523;28;20034;-68
2023/06/23 00:22:40;;;;;;;15.82;12.50;;;;;;;-144.87;100.00;61487.56;4972943;28;20161;-68
2023/06/23 00:25:10;;;;;;;20.58;12.68;;;;;;;-144.87;100.00;61487.56;4994731;28;20375;-69
2023/06/23 00:27:46;;;;;;;17.38;12.68;;;;;;;-144.87;100.00;61487.56;4984142;28;20227;-69
2023/06/23 00:30:13;;;;;;;15.25;12.13;;;;;;;-144.87;100.00;61487.56;4982364;28;20036;-69
2023/06/23 00:32:40;;;;;;;16.77;12.55;;;;;;;-144.87;100.00;61487.56;4976711;28;20038;-69
2023/06/23 00:35:08;;;;;;;19.45;13.00;;;;;;;-144.87;100.00;61487.56;4997348;28;20033;-69
2023/06/23 00:37:39;;;;;;;18.52;13.43;;;;;;;-144.87;100.00;61487.56;4980484;28;20041;-68
2023/06/23 00:40:12;;;;;;;19.48;14.45;;;;;;;-144.87;100.00;61487.56;4998204;28;20147;-69
2023/06/23 00:42:47;;;;;;;22.00;15.23;;;;;;;-144.87;100.00;61487.56;4996405;28;20038;-67
2023/06/23 00:45:13;;;;;;;22.65;15.88;;;;;;;-144.87;100.00;61487.56;4998234;28;20057;-69
2023/06/23 00:47:45;;;;;;;23.23;15.52;;;;;;;-144.87;100.00;61487.56;4991735;28;20081;-69
2023/06/23 00:50:17;;;;;;;21.40;16.02;;;;;;;-144.87;100.00;61487.56;4981048;28;20043;-69
2023/06/23 00:52:51;;;;;;;18.05;15.07;;;;;;;-144.87;100.00;61487.56;4977567;28;20026;-69
2023/06/23 00:55:26;;;;;;;19.00;15.95;;;;;;;-144.87;100.00;61487.56;4976254;28;20042;-69
2023/06/23 00:57:56;;;;;;;20.88;14.50;;;;;;;-144.87;100.00;61487.56;4983714;28;20675;-69
2023/06/23 01:00:24;;;;;;;20.50;15.80;;;;;;;-144.87;100.00;61487.56;4975698;28;20050;-69
2023/06/23 01:02:59;;;;;;;20.85;14.45;;;;;;;-144.87;100.00;61487.56;4961856;28;20049;-68
2023/06/23 01:05:36;;;;;;;20.83;15.27;;;;;;;-144.87;100.00;61487.56;4993928;28;21073;-68
2023/06/23 01:08:47;;;;;;;23.92;15.18;;;;;;;-144.87;100.00;61487.56;4959261;28;20089;-69
2023/06/23 01:11:19;;;;;;;21.98;15.07;;;;;;;-144.87;100.00;61487.56;4977598;28;20115;-69
2023/06/23 01:13:59;;;;;;;25.67;16.80;;;;;;;-144.87;100.00;61487.56;4980980;28;20069;-69
2023/06/23 01:16:40;;;;;;;22.13;17.63;;;;;;;-144.87;100.00;61487.56;4959893;28;20030;-69
2023/06/23 01:19:27;;;;;;;26.67;18.40;;;;;;;-144.87;100.00;61487.56;4983320;28;20450;-69
2023/06/23 01:22:28;;;;;;;27.35;20.55;;;;;;;-144.87;100.00;61487.56;4972268;28;20089;-69
2023/06/23 01:25:20;;;;;;;36.17;22.88;;;;;;;-144.87;100.00;61487.56;4971761;28;20050;-69
2023/06/23 01:27:56;;;;;;;32.92;23.67;;;;;;;-144.87;100.00;61487.56;4974823;28;20042;-70
2023/06/23 01:30:26;;;;;;;35.03;26.10;;;;;;;-144.87;100.00;61487.56;4976990;28;20041;-68
2023/06/23 01:32:56;;;;;;;37.28;26.23;;;;;;;-144.87;100.00;61487.56;4985559;28;20034;-68
2023/06/23 01:35:27;;;;;;;40.20;30.48;;;;;;;-144.87;100.00;61487.56;4966901;28;20026;-67
2023/06/23 01:37:57;;;;;;;47.30;35.22;;;;;;;-144.87;100.00;61487.56;4987410;28;20129;-68
2023/06/23 01:40:25;;;;;;;51.13;34.30;;;;;;;-144.87;100.00;61487.56;4981981;28;20494;-68
2023/06/23 01:42:57;;;;;;;49.15;35.45;;;;;;;-144.87;100.00;61487.56;4988218;28;20022;-68
2023/06/23 01:45:27;;;;;;;51.05;35.97;;;;;;;-144.87;100.00;61487.56;4964210;28;20054;-68
2023/06/23 01:47:55;;;;;;;54.30;38.67;;;;;;;-144.87;100.00;61487.56;5001045;28;20033;-67
2023/06/23 01:50:22;;;;;;;58.20;41.15;;;;;;;-144.87;100.00;61487.56;4964113;28;20109;-68
2023/06/23 01:52:50;;;;;;;53.85;37.90;;;;;;;-144.87;100.00;61487.56;4987309;28;20042;-68
2023/06/23 01:55:17;;;;;;;59.10;41.50;;;;;;;-144.87;100.00;61487.56;4974944;28;20511;-68
2023/06/23 01:57:45;;;;;;;54.88;39.88;;;;;;;-144.87;100.00;61487.56;4996815;28;20042;-68
2023/06/23 02:00:15;;;;;;;62.40;41.17;;;;;;;-144.87;100.00;61487.56;4957882;28;20124;-68
2023/06/23 02:02:43;;;;;;;63.63;43.58;;;;;;;-144.87;100.00;61487.56;4967165;28;20048;-69
2023/06/23 02:05:12;;;;;;;67.72;46.75;;;;;;;-144.87;100.00;61487.56;4985974;28;20117;-68
2023/06/23 02:07:40;;;;;;;80.45;47.95;;;;;;;-144.87;100.00;61487.56;4969496;28;20038;-68
2023/06/23 02:10:08;;;;;;;75.85;48.30;;;;;;;-144.87;100.00;61487.56;4966141;28;20041;-67
2023/06/23 02:12:36;;;;;;;75.70;48.97;;;;;;;-144.87;100.00;61487.56;4979102;28;20066;-68
2023/06/23 02:15:03;;;;;;;81.78;49.95;;;;;;;-144.87;100.00;61487.56;4963513;28;20041;-68
2023/06/23 02:17:29;;;;;;;81.93;49.83;;;;;;;-144.87;100.00;61487.56;4992544;28;20495;-69
2023/06/23 02:19:57;;;;;;;85.80;52.20;;;;;;;-144.87;100.00;61487.56;4983286;28;20121;-69
2023/06/23 02:22:27;;;;;;;80.80;50.50;;;;;;;-144.87;100.00;61487.56;4966539;28;20492;-68
2023/06/23 02:24:54;;;;;;;84.43;51.25;;;;;;;-144.87;100.00;61487.56;4980855;28;20084;-68
2023/06/23 02:27:22;;;;;;;86.97;52.53;;;;;;;-144.87;100.00;61487.56;4988523;28;20053;-68
2023/06/23 02:29:50;;;;;;;81.88;51.72;;;;;;;-144.87;100.00;61487.56;4980494;28;20113;-69
2023/06/23 02:32:16;;;;;;;81.32;51.67;;;;;;;-144.87;100.00;61487.56;4964866;28;20121;-69
2023/06/23 02:34:46;;;;;;;85.03;52.80;;;;;;;-144.87;100.00;61487.56;4977232;28;20077;-69
2023/06/23 02:37:16;;;;;;;108.78;56.85;;;;;;;-144.87;100.00;61487.56;4967637;28;20030;-69
2023/06/23 02:39:48;;;;;;;100.10;57.83;;;;;;;-144.87;100.00;61487.56;4991587;28;21323;-70
2023/06/23 02:42:16;;;;;;;103.70;62.70;;;;;;;-144.87;100.00;61487.56;4964663;28;20108;-68
2023/06/23 02:44:54;;;;;;;112.00;63.38;;;;;;;-144.87;100.00;61487.56;4981572;28;20037;-67
2023/06/23 02:47:20;;;;;;;125.20;65.07;;;;;;;-144.87;100.00;61487.56;4980805;28;20041;-68
2023/06/23 02:49:48;;;;;;;118.40;65.72;;;;;;;-144.87;100.00;61487.56;4979816;28;20557;-69
2023/06/23 02:52:16;;;;;;;139.90;72.30;;;;;;;-144.87;100.00;61487.56;4983370;28;20045;-69
2023/06/23 02:54:46;;;;;;;139.63;71.28;;;;;;;-144.87;100.00;61487.56;4996204;28;20041;-70
2023/06/23 02:57:14;;;;;;;141.82;72.40;;;;;;;-144.87;100.00;61487.56;4982786;28;20037;-69
2023/06/23 02:59:42;;;;;;;164.45;79.93;;;;;;;-144.87;100.00;61487.56;4992683;28;20435;-69
2023/06/23 03:02:13;;;;;;;156.07;79.82;;;;;;;-144.87;100.00;61487.56;4973286;28;20030;-67
2023/06/23 03:04:41;;;;;;;162.05;78.93;;;;;;;-144.87;100.00;61487.56;4993987;28;20030;-67
2023/06/23 03:07:10;;;;;;;169.30;83.30;;;;;;;-144.87;100.00;61487.56;4982347;28;20076;-68
2023/06/23 03:09:37;;;;;;;172.55;82.68;;;;;;;-144.87;100.00;61487.56;4989756;28;20038;-69
2023/06/23 03:12:04;;;;;;;180.93;85.15;;;;;;;-144.87;100.00;61487.56;4982851;28;20061;-69
2023/06/23 03:14:34;;;;;;;172.15;84.32;;;;;;;-144.87;100.00;61487.56;4985873;28;20030;-69
2023/06/23 03:17:06;;;;;;;189.23;86.97;;;;;;;-144.87;100.00;61487.56;4996558;28;20054;-69
2023/06/23 03:19:55;;;;;;;193.02;88.43;;;;;;;-144.87;100.00;61487.56;5008102;28;20065;-69
2023/06/23 03:22:27;;;;;;;189.65;83.75;;;;;;;-144.87;100.00;61487.56;5002227;28;20041;-68
2023/06/23 03:25:02;;;;;;;176.93;82.50;;;;;;;-144.87;100.00;61487.56;5012357;28;20040;-68
2023/06/23 03:27:31;;;;;;;198.70;89.28;;;;;;;-144.87;100.00;61487.56;5018444;28;20139;-68
2023/06/23 03:30:12;;;;;;;187.77;86.88;;;;;;;-144.87;100.00;61487.56;5003942;28;20030;-69
2023/06/23 03:32:48;;;;;;;202.38;90.35;;;;;;;-144.87;100.00;61487.56;5006682;28;20033;-69
2023/06/23 03:35:25;;;;;;;207.25;88.25;;;;;;;-144.87;100.00;61487.56;4999119;28;20030;-69
2023/06/23 03:37:59;;;;;;;201.23;86.22;;;;;;;-144.87;100.00;61487.56;5023208;28;20042;-69
2023/06/23 03:40:26;;;;;;;204.02;89.10;;;;;;;-144.87;100.00;61487.56;5018145;28;20045;-69
2023/06/23 03:43:13;;;;;;;221.85;90.97;;;;;;;-144.87;100.00;61487.56;5028424;28;20030;-73
2023/06/23 03:45:41;;;;;;;218.27;89.00;;;;;;;-144.87;100.00;61487.56;5011861;28;20026;-68
2023/06/23 03:48:10;;;;;;;219.90;89.07;;;;;;;-144.87;100.00;61487.56;5015492;28;20387;-68
2023/06/23 03:50:38;;;;;;;211.25;89.63;;;;;;;-144.87;100.00;61487.56;5024244;28;20037;-68
2023/06/23 03:53:05;;;;;;;222.52;88.68;;;;;;;-144.87;100.00;61487.56;5009920;28;20557;-68
2023/06/23 03:55:32;;;;;;;235.10;93.28;;;;;;;-144.87;100.00;61487.56;5011285;28;20037;-69
2023/06/23 03:58:04;;;;;;;240.70;94.53;;;;;;;-144.87;100.00;61487.56;5030450;28;20048;-68
2023/06/23 04:00:33;;;;;;;250.35;94.00;;;;;;;-144.87;100.00;61487.56;5013649;28;20661;-68
2023/06/23 04:03:00;;;;;;;241.38;94.47;;;;;;;-144.87;100.00;61487.56;5017469;28;20030;-68
2023/06/23 04:05:29;;;;;;;232.40;94.95;;;;;;;-144.87;100.00;61487.56;5013967;28;20574;-67
2023/06/23 04:07:58;;;;;;;223.18;92.90;;;;;;;-144.87;100.00;61487.56;5003849;28;20139;-69
2023/06/23 04:10:26;;;;;;;257.58;100.45;;;;;;;-144.87;100.00;61487.56;5013876;28;20167;-69
2023/06/23 04:12:52;;;;;;;251.73;100.40;;;;;;;-144.87;100.00;61487.56;5018795;28;20034;-68
2023/06/23 04:15:21;;;;;;;260.38;102.25;;;;;;;-144.87;100.00;61487.56;5028139;28;20036;-68
2023/06/23 04:17:49;;;;;;;262.48;103.72;;;;;;;-144.87;100.00;61487.56;5004571;28;20157;-69
2023/06/23 04:20:16;;;;;;;274.58;104.55;;;;;;;-144.87;100.00;61487.56;4977354;28;20054;-69
2023/06/23 04:22:44;;;;;;;269.70;104.40;;;;;;;-144.87;100.00;61487.56;4980780;28;20077;-69
2023/06/23 04:25:12;;;;;;;258.42;100.75;;;;;;;-144.87;100.00;61487.56;4979475;28;20038;-70
2023/06/23 04:27:39;;;;;;;266.38;105.60;;;;;;;-144.87;100.00;61487.56;4996875;28;20109;-70
2023/06/23 04:30:07;;;;;;;273.23;106.10;;;;;;;-144.87;100.00;61487.56;4988792;28;20041;-69
2023/06/23 04:32:35;;;;;;;259.13;100.65;;;;;;;-144.87;100.00;61487.56;4983787;28;20422;-68
2023/06/23 04:35:02;;;;;;;265.90;104.28;;;;;;;-144.87;100.00;61487.56;4983638;28;20084;-68
2023/06/23 04:37:44;;;;;;;261.48;101.10;;;;;;;-144.87;100.00;61487.56;4978203;28;20066;-68
2023/06/23 04:40:20;;;;;;;245.50;99.07;;;;;;;-144.87;100.00;61487.56;4979529;28;20380;-68
2023/06/23 04:43:12;;;;;;;258.92;97.70;;;;;;;-144.87;100.00;61487.56;4983579;28;20038;-68
2023/06/23 04:45:48;;;;;;;225.15;92.28;;;;;;;-144.87;100.00;61487.56;4974294;28;20039;-68
2023/06/23 04:48:14;;;;;;;206.77;87.88;;;;;;;-144.87;100.00;61487.56;4983784;28;20038;-68
2023/06/23 04:50:42;;;;;;;193.05;84.35;;;;;;;-144.87;100.00;61487.56;4979549;28;20042;-69
2023/06/23 04:53:18;;;;;;;182.80;79.10;;;;;;;-144.87;100.00;61487.56;4981618;28;20053;-69
2023/06/23 04:55:47;;;;;;;139.82;69.20;;;;;;;-144.87;100.00;61487.56;4965707;28;20026;-69
2023/06/23 04:58:14;;;;;;;122.85;60.28;;;;;;;-144.87;100.00;61487.56;4975610;28;20034;-69
2023/06/23 05:00:42;;;;;;;109.65;58.28;;;;;;;-144.87;100.00;61487.56;4983207;28;20509;-70
2023/06/23 05:03:08;;;;;;;85.35;48.95;;;;;;;-144.87;100.00;61487.56;4984863;28;20038;-68
2023/06/23 05:05:35;;;;;;;74.30;45.35;;;;;;;-144.87;100.00;61487.56;4971033;28;20069;-68
2023/06/23 05:08:02;;;;;;;66.20;40.55;;;;;;;-144.87;100.00;61487.56;4982366;28;20514;-68
2023/06/23 05:10:31;;;;;;;63.78;38.58;;;;;;;-144.87;100.00;61487.56;4998627;28;20134;-71
2023/06/23 05:12:58;;;;;;;53.78;35.72;;;;;;;-144.87;100.00;61487.56;4974687;28;20416;-70
2023/06/23 05:15:25;;;;;;;49.42;34.00;;;;;;;-144.87;100.00;61487.56;4982526;28;20049;-70
2023/06/23 05:17:53;;;;;;;47.13;31.00;;;;;;;-144.87;100.00;61487.56;4992368;28;20038;-69
2023/06/23 05:20:21;;;;;;;44.58;30.92;;;;;;;-144.87;100.00;61487.56;5007301;28;20061;-69
2023/06/23 05:22:50;;;;;;;43.45;30.65;;;;;;;-144.87;100.00;61487.56;4991230;28;20037;-70
2023/06/23 05:25:18;;;;;;;46.45;30.77;;;;;;;-144.87;100.00;61487.56;5021561;28;20730;-70
2023/06/23 05:27:45;;;;;;;40.55;29.75;;;;;;;-144.87;100.00;61487.56;5019297;28;20045;-71
2023/06/23 05:30:16;;;;;;;41.55;29.15;;;;;;;-144.87;100.00;61487.56;5021200;28;20069;-69
2023/06/23 05:32:43;;;;;;;43.42;28.75;;;;;;;-144.87;100.00;61487.56;5021153;28;20036;-70
2023/06/23 05:35:10;;;;;;;40.72;29.45;;;;;;;-144.87;100.00;61487.56;4997326;28;20025;-70
2023/06/23 05:37:39;;;;;;;39.40;27.73;;;;;;;-144.87;100.00;61487.56;5017734;28;20491;-70
2023/06/23 05:40:06;;;;;;;37.17;27.50;;;;;;;-144.87;100.00;61487.56;5013759;28;20392;-70
2023/06/23 05:42:33;;;;;;;36.97;27.30;;;;;;;-144.87;100.00;61487.56;5019035;28;20053;-70
2023/06/23 05:45:02;;;;;;;35.90;26.63;;;;;;;-144.87;100.00;61487.56;5037525;28;20040;-69
2023/06/23 05:47:52;;;;;;;35.50;26.67;;;;;;;-144.87;100.00;61487.56;5006872;28;20450;-71
2023/06/23 05:50:34;;;;;;;39.42;26.85;;;;;;;-144.87;100.00;61487.56;5015936;28;20049;-69
2023/06/23 05:53:06;;;;;;;38.53;26.20;;;;;;;-144.87;100.00;61487.56;5023271;28;20064;-71
2023/06/23 05:55:37;;;;;;;38.35;26.38;;;;;;;-144.87;100.00;61487.56;5003580;28;20171;-70
2023/06/23 05:58:06;;;;;;;37.38;26.77;;;;;;;-144.87;100.00;61487.56;5015674;28;20026;-71
2023/06/23 06:00:38;;;;;;;31.52;25.67;;;;;;;-144.87;100.00;61487.56;5013419;28;20033;-70
2023/06/23 06:03:09;;;;;;;35.28;25.17;;;;;;;-144.87;100.00;61487.56;5014847;28;20386;-69
2023/06/23 06:05:35;;;;;;;;;;;;;;;-144.87;100.00;61487.56;5014164;28;20117;-69
2023/06/23 06:08:02;;;;;;;36.47;25.92;;;;;;;-144.87;100.00;61487.56;5018771;28;19913;-70
2023/06/23 06:10:29;;;;;;;30.90;24.75;;;;;;;-144.87;100.00;61487.56;5020785;28;20384;-70
2023/06/23 06:12:56;;;;;;;29.58;23.33;;;;;;;-144.87;100.00;61487.56;5010150;28;20034;-70
2023/06/23 06:15:23;;;;;;;30.98;23.23;;;;;;;-144.87;100.00;61487.56;5021835;28;20035;-70
2023/06/23 06:17:51;;;;;;;31.27;24.05;;;;;;;-144.87;100.00;61487.56;5015967;28;20347;-68
2023/06/23 06:20:18;;;;;;;34.15;24.83;;;;;;;-144.87;100.00;61487.56;5023665;28;20033;-68
2023/06/23 06:23:18;;;;;;;33.25;26.90;;;;;;;-144.87;100.00;61487.56;5010728;28;20048;-69
2023/06/23 06:25:45;;;;;;;34.22;26.73;;;;;;;-144.87;100.00;61487.56;5007292;28;20056;-68
2023/06/23 06:28:13;;;;;;;30.98;25.48;;;;;;;-144.87;100.00;61487.56;5031326;28;20065;-70
2023/06/23 06:31:19;;;;;;;32.10;25.10;;;;;;;-144.87;100.00;61487.56;5023984;28;20041;-69
2023/06/23 06:33:51;;;;;;;32.45;24.58;;;;;;;-144.87;100.00;61487.56;5031492;28;20092;-69
2023/06/23 06:36:21;;;;;;;28.80;24.75;;;;;;;-144.87;100.00;61487.56;5015552;28;20034;-70
2023/06/23 06:38:50;;;;;;;29.13;24.65;;;;;;;-144.87;100.00;61487.56;5016804;28;20057;-69
2023/06/23 06:41:18;;;;;;;29.13;24.30;;;;;;;-144.87;100.00;61487.56;5040081;28;20155;-69
2023/06/23 06:43:49;;;;;;;29.48;23.58;;;;;;;-144.87;100.00;61487.56;5024421;28;20042;-69
2023/06/23 06:46:25;;;;;;;24.20;20.35;;;;;;;-144.87;100.00;61487.56;5027787;28;20103;-69
2023/06/23 06:48:53;;;;;;;27.45;21.85;;;;;;;-144.87;100.00;61487.56;5027229;28;20045;-69
2023/06/23 06:51:25;;;;;;;27.80;20.25;;;;;;;-144.87;100.00;61487.56;5026642;28;20116;-69
2023/06/23 06:53:51;;;;;;;24.20;20.85;;;;;;;-144.87;100.00;61487.56;5026543;28;20042;-69
2023/06/23 06:56:18;;;;;;;27.45;21.10;;;;;;;-144.87;100.00;61487.56;5001086;28;20574;-69
2023/06/23 06:58:44;;;;;;;26.65;21.73;;;;;;;-144.87;100.00;61487.56;5024608;28;20041;-68
2023/06/23 07:01:11;;;;;;;25.45;20.77;;;;;;;-144.87;100.00;61487.56;5020175;28;20502;-69
2023/06/23 07:03:42;;;;;;;31.15;21.30;;;;;;;-144.87;100.00;61487.56;5013872;28;20037;-69
2023/06/23 07:06:50;;;;;;;27.77;21.63;;;;;;;-144.87;100.00;61487.56;5002172;28;20029;-69
2023/06/23 07:09:16;;;;;;;24.95;19.40;;;;;;;-144.87;100.00;61487.56;5012202;28;20100;-69
2023/06/23 07:11:42;;;;;;;25.70;18.50;;;;;;;-144.87;100.00;61487.56;5020482;28;20445;-68
2023/06/23 07:14:09;;;;;;;26.40;18.20;;;;;;;-144.87;100.00;61487.56;5022824;28;20048;-69
2023/06/23 07:16:35;;;;;;;28.13;20.77;;;;;;;-144.87;100.00;61487.56;5017311;28;20037;-69
2023/06/23 07:19:01;;;;;;;27.02;20.20;;;;;;;-144.87;100.00;61487.56;5002861;28;20043;-69
2023/06/23 07:21:28;;;;;;;22.10;19.40;;;;;;;-144.87;100.00;61487.56;4987139;28;20060;-68
2023/06/23 07:23:54;;;;;;;26.40;19.50;;;;;;;-144.87;100.00;61487.56;4995760;28;20042;-70
2023/06/23 07:26:20;;;;;;;24.35;19.23;;;;;;;-144.87;100.00;61487.56;5001610;28;20042;-69
2023/06/23 07:28:47;;;;;;;26.58;18.77;;;;;;;-144.87;100.00;61487.56;5003106;28;20394;-70
2023/06/23 07:31:13;;;;;;;24.40;19.42;;;;;;;-144.87;100.00;61487.56;4998796;28;20053;-69
2023/06/23 07:33:41;;;;;;;23.00;17.52;;;;;;;-144.87;100.00;61487.56;4998502;28;21290;-69
2023/06/23 07:36:07;;;;;;;25.25;17.35;;;;;;;-144.87;100.00;61487.56;4976521;28;20046;-69
2023/06/23 07:38:33;;;;;;;21.30;16.73;;;;;;;-144.87;100.00;61487.56;5003357;28;20042;-69
2023/06/23 07:41:00;;;;;;;20.70;15.40;;;;;;;-144.87;100.00;61487.56;4998059;28;20042;-70
2023/06/23 07:43:26;;;;;;;17.95;14.95;;;;;;;-144.87;100.00;61487.56;4999778;28;20034;-70
2023/06/23 07:45:52;;;;;;;16.38;13.60;;;;;;;-144.87;100.00;61487.56;4983918;28;20587;-69
2023/06/23 07:48:19;;;;;;;16.70;13.48;;;;;;;-144.87;100.00;61487.56;4988089;28;20033;-68
2023/06/23 07:50:46;;;;;;;22.58;13.93;;;;;;;-144.87;100.00;61487.56;5003900;28;20095;-69
2023/06/23 07:53:12;;;;;;;17.70;11.48;;;;;;;-144.87;100.00;61487.56;4996525;28;20034;-69
2023/06/23 07:55:39;;;;;;;16.15;13.40;;;;;;;-144.87;100.00;61487.56;4998516;28;20092;-68
2023/06/23 07:58:05;;;;;;;15.63;10.80;;;;;;;-144.87;100.00;61487.56;4994043;28;20034;-69
2023/06/23 08:00:31;;;;;;;15.68;10.70;;;;;;;-144.87;100.00;61487.56;4999729;28;20042;-68
2023/06/23 08:02:58;;;;;;;12.70;9.90;;;;;;;-144.87;100.00;61487.56;4968267;28;20036;-70
2023/06/23 08:05:24;;;;;;;13.70;10.40;;;;;;;-144.87;100.00;61487.56;4979743;28;20049;-69
2023/06/23 08:07:50;;;;;;;16.33;10.50;;;;;;;-144.87;100.00;61487.56;4979931;28;20045;-68
2023/06/23 08:10:16;;;;;;;13.85;11.13;;;;;;;-144.87;100.00;61487.56;4985026;28;20698;-69
2023/06/23 08:12:43;;;;;;;13.00;10.23;;;;;;;-144.87;100.00;61487.56;4990031;28;20038;-69
2023/06/23 08:15:11;;;;;;;13.43;10.18;;;;;;;-144.87;100.00;61487.56;5003754;28;20116;-69
2023/06/23 08:17:37;;;;;;;14.63;10.75;;;;;;;-144.87;100.00;61487.56;5002886;28;20132;-68
2023/06/23 08:20:04;;;;;;;14.70;10.40;;;;;;;-144.87;100.00;61487.56;5002852;28;20455;-69
2023/06/23 08:22:31;;;;;;;15.50;10.98;;;;;;;-144.87;100.00;61487.56;5007849;28;20030;-69
2023/06/23 08:24:57;;;;;;;13.98;10.23;;;;;;;-144.87;100.00;61487.56;4973669;28;20031;-68
2023/06/23 08:27:23;;;;;;;13.77;11.05;;;;;;;-144.87;100.00;61487.56;4975453;28;20069;-69
2023/06/23 08:29:49;;;;;;;14.70;9.88;;;;;;;-144.87;100.00;61487.56;5011638;28;20038;-69
2023/06/23 08:32:16;;;;;;;12.93;9.38;;;;;;;-144.87;100.00;61487.56;4989529;28;20038;-69
2023/06/23 08:34:42;;;;;;;15.90;9.77;;;;;;;-144.87;100.00;61487.56;5005435;28;20038;-69
2023/06/23 08:37:08;;;;;;;13.68;9.38;;;;;;;-144.87;100.00;61487.56;4995352;28;20046;-69
2023/06/23 08:39:35;;;;;;;13.45;8.88;;;;;;;-144.87;100.00;61487.56;4987528;28;20418;-68
2023/06/23 08:42:02;;;;;;;15.23;8.77;;;;;;;-144.87;100.00;61487.56;4995619;28;20123;-69
2023/06/23 08:44:31;;;;;;;10.88;6.55;;;;;;;-144.87;100.00;61487.56;4990065;28;20046;-69
2023/06/23 08:47:00;;;;;;;9.15;7.20;;;;;;;-144.87;100.00;61487.56;4993561;28;20038;-69
2023/06/23 08:49:28;;;;;;;11.48;8.55;;;;;;;-144.87;100.00;61487.56;4974106;28;20061;-69
2023/06/23 08:51:56;;;;;;;11.05;7.53;;;;;;;-144.87;100.00;61487.56;4992826;28;20033;-69
2023/06/23 08:54:23;;;;;;;10.55;7.97;;;;;;;-144.87;100.00;61487.56;4990965;28;20046;-69
2023/06/23 08:56:49;;;;;;;12.35;7.97;;;;;;;-144.87;100.00;61487.56;4997677;28;20065;-69
2023/06/23 08:59:15;;;;;;;9.13;7.25;;;;;;;-144.87;100.00;61487.56;4998123;28;20033;-70
2023/06/23 09:01:42;;;;;;;11.02;7.18;;;;;;;-144.87;100.00;61487.56;4960166;28;20125;-68
2023/06/23 09:04:08;;;;;;;7.50;6.00;;;;;;;-144.87;100.00;61487.56;4991494;28;20108;-68
2023/06/23 09:06:35;;;;;;;8.35;6.03;;;;;;;-144.87;100.00;61487.56;4989738;28;20042;-68
2023/06/23 09:09:01;;;;;;;10.43;6.03;;;;;;;-144.87;100.00;61487.56;4987001;28;20049;-68
2023/06/23 09:11:28;;;;;;;7.57;5.50;;;;;;;-144.87;100.00;61487.56;4961227;28;20363;-69
2023/06/23 09:13:55;;;;;;;9.35;5.35;;;;;;;-144.87;100.00;61487.56;4964432;28;20046;-69
2023/06/23 09:16:22;;;;;;;7.70;5.10;;;;;;;-144.87;100.00;61487.56;4964328;28;20471;-69
2023/06/23 09:18:49;;;;;;;8.02;4.60;;;;;;;-144.87;100.00;61487.56;5031512;28;20044;-70
2023/06/23 09:21:15;;;;;;;13.25;4.70;;;;;;;-144.87;100.00;61487.56;5018481;28;20040;-69
2023/06/23 09:24:03;;;;;;;6.90;5.82;;;;;;;-144.87;100.00;61487.56;5002229;28;20026;-69
2023/06/23 09:26:30;;;;;;;8.80;5.72;;;;;;;-144.87;100.00;61487.56;5014674;28;20038;-69
2023/06/23 09:29:23;;;;;;;6.25;5.40;;;;;;;-144.87;100.00;61487.56;5013483;28;20021;-68
2023/06/23 09:31:51;;;;;;;8.05;4.95;;;;;;;-144.87;100.00;61487.56;5007743;28;20160;-67
2023/06/23 09:34:25;;;;;;;6.72;4.80;;;;;;;-144.87;100.00;61487.56;5012354;28;20038;-69
2023/06/23 09:36:53;;;;;;;12.00;4.25;;;;;;;-144.87;100.00;61487.56;5015140;28;20037;-70
2023/06/23 09:39:20;;;;;;;8.73;4.50;;;;;;;-144.87;100.00;61487.56;5016576;28;20033;-69
2023/06/23 09:41:56;;;;;;;6.68;4.60;;;;;;;-144.87;100.00;61487.56;5018358;28;20162;-68
2023/06/23 09:44:30;;;;;;;8.10;4.40;;;;;;;-144.87;100.00;61487.56;5028110;28;20033;-68
2023/06/23 09:47:04;;;;;;;8.13;3.78;;;;;;;-144.87;100.00;61487.56;5020669;28;20453;-70
2023/06/23 09:49:39;;;;;;;5.22;3.10;;;;;;;-144.87;100.00;61487.56;5014809;28;20107;-69
2023/06/23 09:52:09;;;;;;;7.78;3.65;;;;;;;-144.87;100.00;61487.56;5017280;28;20132;-70
2023/06/23 09:54:39;;;;;;;5.70;3.92;;;;;;;-144.87;100.00;61487.56;5015720;28;20037;-70
2023/06/23 09:57:14;;;;;;;9.63;3.92;;;;;;;-144.87;100.00;61487.56;5013677;28;20044;-68
2023/06/23 09:59:42;;;;;;;5.45;3.63;;;;;;;-144.87;100.00;61487.56;5021875;28;20033;-69
2023/06/23 10:02:20;;;;;;;13.00;3.80;;;;;;;-144.87;100.00;61487.56;5009634;28;20038;-70
2023/06/23 10:04:48;;;;;;;6.25;3.40;;;;;;;-144.87;100.00;61487.56;5012374;28;20052;-69
2023/06/23 10:07:26;;;;;;;5.80;3.33;;;;;;;-144.87;100.00;61487.56;5014002;28;20057;-68
2023/06/23 10:09:54;;;;;;;7.35;3.97;;;;;;;-144.87;100.00;61487.56;5033722;28;20029;-69
2023/06/23 10:12:26;;;;;;;5.38;3.85;;;;;;;-144.87;100.00;61487.56;5027980;28;20041;-70
2023/06/23 10:14:54;;;;;;;5.60;3.58;;;;;;;-144.87;100.00;61487.56;5011911;28;20112;-68
2023/06/23 10:17:20;;;;;;;11.45;4.18;;;;;;;-144.87;100.00;61487.56;5018957;28;20812;-68
2023/06/23 10:19:48;;;;;;;4.93;3.65;;;;;;;-144.87;100.00;61487.56;5024224;28;20114;-69
2023/06/23 10:22:19;;;;;;;13.02;4.63;;;;;;;-144.87;100.00;61487.56;5031019;28;20056;-68
2023/06/23 10:24:51;;;;;;;5.43;3.85;;;;;;;-144.87;100.00;61487.56;5034441;28;20037;-69
2023/06/23 10:27:28;;;;;;;5.90;4.15;;;;;;;-144.87;100.00;61487.56;5020262;28;20065;-69
2023/06/23 10:29:56;;;;;;;7.55;3.92;;;;;;;-144.87;100.00;61487.56;5020850;28;20184;-67
2023/06/23 10:32:28;;;;;;;10.50;4.28;;;;;;;-144.87;100.00;61487.56;5023593;28;20040;-69
2023/06/23 10:35:03;;;;;;;6.40;4.38;;;;;;;-144.87;100.00;61487.56;5025989;28;20048;-68
2023/06/23 10:37:31;;;;;;;7.60;4.00;;;;;;;-144.87;100.00;61487.56;5030742;28;20037;-68
2023/06/23 10:40:03;;;;;;;10.75;4.47;;;;;;;-144.87;100.00;61487.56;5020995;28;20029;-69
2023/06/23 10:42:31;;;;;;;8.52;4.18;;;;;;;-144.87;100.00;61487.56;5018903;28;20034;-69
2023/06/23 10:44:59;;;;;;;10.05;4.50;;;;;;;-144.87;100.00;61487.56;5027371;28;20056;-70
2023/06/23 10:47:26;;;;;;;9.52;4.30;;;;;;;-144.87;100.00;61487.56;5018583;28;20033;-69
2023/06/23 10:49:52;;;;;;;6.22;4.30;;;;;;;-144.87;100.00;61487.56;5018219;28;20837;-69
2023/06/23 10:52:19;;;;;;;8.68;4.57;;;;;;;-144.87;100.00;61487.56;5025850;28;20045;-69
2023/06/23 10:54:46;;;;;;;7.53;4.65;;;;;;;-144.87;100.00;61487.56;5031575;28;20439;-69
2023/06/23 10:57:13;;;;;;;7.57;4.22;;;;;;;-144.87;100.00;61487.56;5019997;28;20030;-69
2023/06/23 10:59:44;;;;;;;10.25;5.32;;;;;;;-144.87;100.00;61487.56;5020451;28;20025;-69
2023/06/23 11:02:17;;;;;;;9.90;4.13;;;;;;;-144.87;100.00;61487.56;5017523;28;20032;-71
2023/06/23 11:05:03;;;;;;;7.07;4.05;;;;;;;-144.87;100.00;61487.56;5026565;28;20128;-68
2023/06/23 11:07:30;;;;;;;8.50;4.72;;;;;;;-144.87;100.00;61487.56;5021015;28;20029;-69